Time;durP1;ratioP1;P1;durP2;ratioP2;P2;SDS_P1;SDS_P2;PMS_P1;PMS_P2;Temp;Humidity;BMP_temperature;BMP_pressure;BME280_temperature;BME280_humidity;BME280_pressure;Samples;Min_cycle;Max_cycle;Signal;HPM_P1;HPM_P2
2021/10/28 00:13:24;;;;;;;15.43;7.55;;;;;;;7.05;100.00;100971.59;4970351;28;20168;-77
2021/10/28 00:16:14;;;;;;;14.75;6.95;;;;;;;7.03;99.77;100969.03;4965359;28;20624;-79
2021/10/28 00:19:01;;;;;;;13.85;7.22;;;;;;;7.11;100.00;100970.34;4970690;28;20417;-79
2021/10/28 00:21:49;;;;;;;13.88;7.25;;;;;;;6.98;99.74;100972.94;4970323;28;20050;-78
2021/10/28 00:24:34;;;;;;;12.40;6.68;;;;;;;6.87;99.96;100978.19;4972252;28;20057;-78
2021/10/28 00:27:22;;;;;;;11.73;7.60;;;;;;;6.86;100.00;100963.94;4965505;28;20097;-79
2021/10/28 00:30:08;;;;;;;11.48;6.97;;;;;;;6.88;100.00;100969.22;4974575;28;20547;-79
2021/10/28 00:32:55;;;;;;;15.00;7.28;;;;;;;6.94;100.00;100966.13;4978119;28;20420;-80
2021/10/28 00:35:42;;;;;;;11.50;7.35;;;;;;;6.87;100.00;100968.38;4976915;28;20409;-80
2021/10/28 00:38:33;;;;;;;13.65;8.10;;;;;;;6.85;100.00;100970.25;4975270;28;20062;-79
2021/10/28 00:41:22;;;;;;;14.05;8.55;;;;;;;6.81;100.00;100973.25;4979248;28;20064;-79
2021/10/28 00:44:10;;;;;;;17.73;8.25;;;;;;;6.84;100.00;100965.03;4981299;28;20050;-81
2021/10/28 00:46:55;;;;;;;11.45;6.97;;;;;;;6.92;100.00;100970.72;4972160;28;20065;-79
2021/10/28 00:49:42;;;;;;;11.93;7.27;;;;;;;6.94;100.00;100974.13;4974875;28;20073;-77
2021/10/28 00:52:33;;;;;;;12.13;7.28;;;;;;;6.82;99.97;100975.81;4969893;28;20365;-77
2021/10/28 00:55:19;;;;;;;11.85;7.28;;;;;;;6.74;100.00;100978.13;4967713;28;20520;-79
2021/10/28 00:58:06;;;;;;;13.52;7.47;;;;;;;6.81;100.00;100974.09;4975966;28;20057;-80
2021/10/28 01:00:51;;;;;;;;;;;;;;;6.87;100.00;100972.84;4976675;28;20773;-79
2021/10/28 01:03:38;;;;;;;9.30;6.05;;;;;;;6.80;100.00;100976.88;4971548;28;19932;-80
2021/10/28 01:06:24;;;;;;;12.50;7.07;;;;;;;6.72;100.00;100970.22;4975774;28;20429;-79
2021/10/28 01:09:10;;;;;;;11.93;6.50;;;;;;;6.72;100.00;100972.88;4974310;28;20054;-81
2021/10/28 01:11:55;;;;;;;11.25;6.97;;;;;;;6.72;100.00;100975.56;4968769;28;20313;-79
2021/10/28 01:14:45;;;;;;;15.45;7.30;;;;;;;6.68;100.00;100968.72;4973520;28;20572;-79
2021/10/28 01:17:31;;;;;;;11.38;7.03;;;;;;;6.57;100.00;100965.06;4975995;28;20054;-80
2021/10/28 01:20:17;;;;;;;13.60;7.65;;;;;;;6.47;100.00;100964.78;4977340;28;20133;-80
2021/10/28 01:23:03;;;;;;;16.30;7.53;;;;;;;6.51;100.00;100968.09;4976654;28;20066;-79
2021/10/28 01:25:55;;;;;;;14.38;8.30;;;;;;;6.39;100.00;100961.75;4974453;28;20105;-79
2021/10/28 01:28:51;;;;;;;15.68;8.90;;;;;;;6.38;100.00;100965.38;4972763;28;20413;-79
2021/10/28 01:31:38;;;;;;;18.13;9.30;;;;;;;6.50;100.00;100969.91;4977090;28;20054;-79
2021/10/28 01:34:23;;;;;;;17.63;8.93;;;;;;;6.48;100.00;100962.97;4974393;28;20064;-77
2021/10/28 01:37:10;;;;;;;22.45;10.68;;;;;;;6.46;100.00;100963.09;4975530;28;20162;-79
2021/10/28 01:39:56;;;;;;;19.65;10.13;;;;;;;6.68;100.00;100958.06;4970313;28;20055;-79
2021/10/28 01:42:47;;;;;;;19.50;10.20;;;;;;;6.54;100.00;100957.25;4972568;28;20053;-80
2021/10/28 01:45:32;;;;;;;21.70;10.90;;;;;;;6.45;100.00;100956.91;4975836;28;20054;-77
2021/10/28 01:48:18;;;;;;;18.88;10.27;;;;;;;6.63;100.00;100960.19;4974693;28;20145;-79
2021/10/28 01:51:04;;;;;;;15.47;10.47;;;;;;;6.48;100.00;100955.84;4975985;28;20062;-79
2021/10/28 01:53:51;;;;;;;19.50;9.75;;;;;;;6.40;100.00;100958.16;4975750;28;20101;-78
2021/10/28 01:56:38;;;;;;;16.67;9.75;;;;;;;6.38;100.00;100952.06;4975531;28;20062;-79
2021/10/28 01:59:23;;;;;;;17.15;8.55;;;;;;;6.25;100.00;100949.34;4976533;28;20539;-76
2021/10/28 02:02:08;;;;;;;12.32;7.90;;;;;;;6.20;100.00;100955.94;4971665;28;20058;-78
2021/10/28 02:04:53;;;;;;;16.98;9.23;;;;;;;6.20;100.00;100950.59;4974938;28;20061;-79
2021/10/28 02:07:39;;;;;;;17.07;9.43;;;;;;;6.29;100.00;100952.69;4971898;28;20054;-80
2021/10/28 02:10:28;;;;;;;19.48;10.70;;;;;;;6.24;100.00;100952.09;4971621;28;20053;-80
2021/10/28 02:13:13;;;;;;;19.85;9.77;;;;;;;6.23;100.00;100947.72;4975369;28;20061;-78
2021/10/28 02:16:01;;;;;;;15.47;8.87;;;;;;;6.16;100.00;100941.97;4967154;28;20133;-78
2021/10/28 02:18:46;;;;;;;16.92;9.38;;;;;;;6.27;100.00;100946.56;4973731;28;20416;-79
2021/10/28 02:21:31;;;;;;;18.73;9.70;;;;;;;6.32;100.00;100952.47;4974632;28;20054;-79
2021/10/28 02:24:16;;;;;;;17.17;9.43;;;;;;;6.42;100.00;100946.44;4974857;28;20101;-79
2021/10/28 02:27:03;;;;;;;17.55;10.55;;;;;;;6.33;100.00;100957.69;4975627;28;20089;-78
2021/10/28 02:29:48;;;;;;;18.20;9.63;;;;;;;6.37;100.00;100945.00;4975823;28;20512;-80
2021/10/28 02:32:33;;;;;;;15.85;9.57;;;;;;;6.26;100.00;100950.19;4976646;28;20109;-78
2021/10/28 02:35:19;;;;;;;19.38;10.25;;;;;;;6.13;100.00;100944.78;4974604;28;20073;-79
2021/10/28 02:38:04;;;;;;;21.42;11.07;;;;;;;6.10;100.00;100950.31;4975794;28;20069;-79
2021/10/28 02:40:50;;;;;;;17.67;10.70;;;;;;;6.15;100.00;100945.53;4968271;28;20062;-78
2021/10/28 02:43:37;;;;;;;22.75;10.95;;;;;;;6.17;100.00;100940.16;4975592;28;20162;-80
2021/10/28 02:46:22;;;;;;;24.40;12.23;;;;;;;6.08;100.00;100937.09;4974012;28;20567;-79
2021/10/28 02:49:14;;;;;;;21.77;11.40;;;;;;;6.23;100.00;100947.72;4976117;28;20133;-80
2021/10/28 02:52:01;;;;;;;18.45;10.85;;;;;;;6.17;100.00;100950.81;4972650;28;20061;-79
2021/10/28 02:54:46;;;;;;;22.92;11.55;;;;;;;6.00;100.00;100952.72;4976845;28;20058;-80
2021/10/28 02:57:31;;;;;;;20.00;10.63;;;;;;;5.87;100.00;100943.75;4977436;28;20062;-80
2021/10/28 03:00:21;;;;;;;19.45;10.57;;;;;;;5.81;100.00;100941.50;4976701;28;20053;-81
2021/10/28 03:03:06;;;;;;;16.52;9.50;;;;;;;5.85;100.00;100941.19;4978862;28;20133;-80
2021/10/28 03:05:55;;;;;;;20.38;11.85;;;;;;;5.82;100.00;100948.53;4976301;28;20113;-77
2021/10/28 03:08:42;;;;;;;23.02;11.77;;;;;;;5.85;100.00;100946.53;4974404;28;20139;-80
2021/10/28 03:11:27;;;;;;;19.40;10.20;;;;;;;5.77;100.00;100950.63;4972472;28;20069;-79
2021/10/28 03:14:14;;;;;;;19.48;10.80;;;;;;;5.76;100.00;100951.56;4974955;28;20441;-79
2021/10/28 03:17:16;;;;;;;21.58;11.98;;;;;;;5.82;100.00;100951.22;4966661;28;20107;-80
2021/10/28 03:26:21;;;;;;;28.88;13.27;;;;;;;5.75;100.00;100948.06;4971181;28;20081;-79
2021/10/28 03:29:06;;;;;;;27.80;13.82;;;;;;;5.71;100.00;100953.69;4972627;28;20058;-78
2021/10/28 03:31:51;;;;;;;28.27;13.00;;;;;;;5.69;100.00;100956.44;4968489;28;20054;-79
2021/10/28 03:34:39;;;;;;;30.05;13.90;;;;;;;5.85;100.00;100956.34;4974714;28;20753;-80
2021/10/28 03:37:27;;;;;;;24.38;12.57;;;;;;;5.72;100.00;100955.41;4967131;28;20062;-80
2021/10/28 03:40:31;;;;;;;23.25;13.25;;;;;;;5.63;100.00;100953.28;4976352;28;20093;-81
2021/10/28 03:43:38;;;;;;;28.00;13.18;;;;;;;5.53;100.00;100948.53;4962038;28;20113;-79
2021/10/28 03:59:05;;;;;;;27.55;12.52;;;;;;;5.54;100.00;100946.72;4967144;28;20057;-78
2021/10/28 04:05:34;;;;;;;26.55;12.23;;;;;;;5.76;100.00;100943.59;4963846;28;20061;-78
2021/10/28 04:18:04;;;;;;;23.60;11.77;;;;;;;5.49;100.00;100946.16;4967803;28;20058;-80
2021/10/28 04:21:04;;;;;;;23.70;13.13;;;;;;;5.52;100.00;100937.97;4971924;28;20062;-80
2021/10/28 04:30:07;;;;;;;29.10;13.02;;;;;;;5.67;100.00;100934.34;4976650;28;20101;-78
2021/10/28 04:32:50;;;;;;;24.33;12.25;;;;;;;5.67;100.00;100938.81;5004821;28;20068;-63
2021/10/28 04:35:35;;;;;;;28.58;13.25;;;;;;;5.69;100.00;100935.16;5013670;28;20052;-61
2021/10/28 04:38:21;;;;;;;20.23;10.70;;;;;;;5.60;100.00;100941.03;4994237;28;20065;-62
2021/10/28 04:41:07;;;;;;;21.50;12.13;;;;;;;5.52;100.00;100937.97;4992886;28;20822;-63
2021/10/28 04:43:52;;;;;;;18.02;9.88;;;;;;;5.43;100.00;100936.72;5008478;22;20053;-64
2021/10/28 04:46:37;;;;;;;19.02;9.68;;;;;;;5.44;100.00;100933.13;4985432;28;20136;-63
2021/10/28 04:49:23;;;;;;;17.97;10.40;;;;;;;5.39;100.00;100937.88;4993162;28;20060;-64
2021/10/28 04:52:08;;;;;;;19.27;11.57;;;;;;;5.47;100.00;100932.09;4992547;28;20308;-63
2021/10/28 04:54:53;;;;;;;20.13;10.40;;;;;;;5.44;100.00;100927.78;4990042;28;20061;-63
2021/10/28 04:57:40;;;;;;;19.87;10.60;;;;;;;5.38;100.00;100930.84;4993697;28;20061;-62
2021/10/28 05:00:26;;;;;;;21.25;11.13;;;;;;;5.31;100.00;100926.84;4993025;28;20118;-63
2021/10/28 05:03:11;;;;;;;21.08;11.93;;;;;;;5.32;100.00;100925.03;4986899;28;20069;-64
2021/10/28 05:05:56;;;;;;;25.35;11.93;;;;;;;5.36;100.00;100926.56;4989276;28;20619;-64
2021/10/28 05:08:41;;;;;;;26.02;13.07;;;;;;;5.45;100.00;100920.69;4991685;28;20049;-62
2021/10/28 05:11:28;;;;;;;21.27;11.63;;;;;;;5.29;100.00;100926.09;4992584;28;20066;-65
2021/10/28 05:14:14;;;;;;;27.80;11.75;;;;;;;5.31;100.00;100929.50;4991259;28;20058;-63
2021/10/28 05:16:59;;;;;;;23.02;10.88;;;;;;;5.26;100.00;100920.97;4985540;28;20100;-65
2021/10/28 05:19:44;;;;;;;23.00;11.48;;;;;;;5.21;100.00;100925.72;4992302;28;20058;-62
2021/10/28 05:22:29;;;;;;;26.63;12.10;;;;;;;5.30;100.00;100925.13;4993229;28;20057;-64
2021/10/28 05:25:14;;;;;;;22.75;12.68;;;;;;;5.28;100.00;100919.06;4989677;28;20296;-64
2021/10/28 05:28:00;;;;;;;21.27;11.38;;;;;;;5.36;100.00;100921.25;4989436;28;20522;-60
2021/10/28 05:30:46;;;;;;;17.80;11.07;;;;;;;5.31;100.00;100918.84;4982634;28;20122;-64
2021/10/28 05:33:31;;;;;;;24.45;11.57;;;;;;;5.20;100.00;100921.31;4992027;28;20542;-64
2021/10/28 05:36:16;;;;;;;16.15;9.75;;;;;;;5.13;100.00;100930.63;4975622;28;20780;-63
2021/10/28 05:39:02;;;;;;;21.63;11.88;;;;;;;5.21;100.00;100923.91;4986557;28;20127;-63
2021/10/28 05:41:47;;;;;;;22.20;11.57;;;;;;;5.28;100.00;100922.56;4989316;28;20144;-64
2021/10/28 05:44:32;;;;;;;19.65;10.75;;;;;;;5.27;100.00;100920.00;4987714;28;20359;-63
2021/10/28 05:47:19;;;;;;;21.52;11.35;;;;;;;5.14;100.00;100924.38;4985997;28;20053;-62
2021/10/28 05:50:06;;;;;;;19.58;10.75;;;;;;;5.11;100.00;100920.09;4987276;28;20409;-64
2021/10/28 05:52:53;;;;;;;18.13;10.13;;;;;;;5.10;100.00;100921.03;4987115;28;20168;-63
2021/10/28 05:55:38;;;;;;;16.25;9.30;;;;;;;5.08;100.00;100922.06;4992970;28;20053;-63
2021/10/28 05:58:23;;;;;;;17.73;9.68;;;;;;;5.12;100.00;100920.94;4990581;28;20057;-63
2021/10/28 06:01:09;;;;;;;19.95;11.00;;;;;;;5.13;100.00;100917.34;4993826;28;20093;-63
2021/10/28 06:03:55;;;;;;;19.77;10.85;;;;;;;5.14;100.00;100919.03;4993978;28;20136;-65
2021/10/28 06:06:40;;;;;;;19.10;11.10;;;;;;;5.16;100.00;100925.97;4988158;28;20062;-65
2021/10/28 06:09:25;;;;;;;20.23;10.82;;;;;;;5.26;100.00;100924.47;4987863;28;20125;-63
2021/10/28 06:12:11;;;;;;;18.45;10.13;;;;;;;5.34;100.00;100923.16;4984331;28;20057;-63
2021/10/28 06:14:56;;;;;;;24.08;12.02;;;;;;;5.36;100.00;100922.09;4986071;28;20133;-64
2021/10/28 06:17:48;;;;;;;22.40;11.25;;;;;;;5.38;100.00;100920.19;4986394;28;20053;-63
2021/10/28 06:20:35;;;;;;;18.90;10.88;;;;;;;5.36;100.00;100915.94;4985826;28;20065;-65
2021/10/28 06:23:19;;;;;;;;;;;;;;;5.33;100.00;100921.41;4987497;28;20209;-63
2021/10/28 06:26:04;;;;;;;17.20;10.00;;;;;;;5.32;100.00;100920.56;4983504;28;20019;-65
2021/10/28 06:28:50;;;;;;;18.42;11.25;;;;;;;5.33;100.00;100921.41;4983582;28;20053;-65
2021/10/28 06:31:34;;;;;;;19.17;10.50;;;;;;;5.38;100.00;100922.88;4985132;28;20065;-63
2021/10/28 06:34:21;;;;;;;20.35;10.70;;;;;;;5.47;100.00;100929.44;4983593;28;20070;-64
2021/10/28 06:37:08;;;;;;;;;;;;;;;5.56;100.00;100923.50;4986486;28;20511;-63
2021/10/28 06:39:52;;;;;;;23.88;11.93;;;;;;;5.61;100.00;100931.25;4984895;28;19933;-64
2021/10/28 06:42:37;;;;;;;20.58;11.10;;;;;;;5.66;100.00;100923.81;4983912;28;20077;-63
2021/10/28 06:45:23;;;;;;;24.50;11.70;;;;;;;5.76;100.00;100930.25;4985535;28;20065;-64
2021/10/28 06:48:08;;;;;;;20.55;11.27;;;;;;;5.80;100.00;100931.78;4984808;28;20054;-64
2021/10/28 06:50:55;;;;;;;22.15;12.20;;;;;;;5.87;100.00;100933.09;4983522;28;20259;-63
2021/10/28 06:53:54;;;;;;;30.98;13.40;;;;;;;5.95;100.00;100922.88;4985105;28;20157;-64
2021/10/28 06:56:58;;;;;;;26.95;13.27;;;;;;;6.09;100.00;100924.63;4984645;28;21839;-64
2021/10/28 07:02:47;;;;;;;23.73;12.70;;;;;;;6.24;100.00;100923.63;4984818;28;20085;-64
2021/10/28 07:05:32;;;;;;;26.95;13.38;;;;;;;6.35;99.77;100914.94;4986464;28;20519;-64
2021/10/28 07:08:17;;;;;;;27.45;13.40;;;;;;;6.42;99.59;100913.59;4984943;28;20270;-64
2021/10/28 07:11:08;;;;;;;26.38;11.95;;;;;;;6.49;99.50;100914.88;4984969;28;20096;-64
2021/10/28 07:13:55;;;;;;;24.20;12.57;;;;;;;6.59;99.47;100920.47;4980107;28;20523;-64
2021/10/28 07:16:44;;;;;;;22.23;13.00;;;;;;;6.64;99.54;100916.53;4984984;28;20062;-63
2021/10/28 07:19:47;;;;;;;20.17;11.38;;;;;;;6.72;99.19;100916.84;4983378;28;20069;-64
2021/10/28 07:25:49;;;;;;;24.38;12.18;;;;;;;6.87;98.72;100919.47;4982561;28;20100;-66
2021/10/28 07:28:56;;;;;;;21.33;11.63;;;;;;;6.96;98.22;100926.84;4981273;28;20509;-64
2021/10/28 07:59:33;;;;;;;18.02;9.70;;;;;;;8.00;96.54;100895.47;4984578;28;20069;-64
2021/10/28 08:18:03;;;;;;;18.48;10.48;;;;;;;8.68;94.97;100889.50;4923068;29;20067;-64
2021/10/28 08:21:10;;;;;;;17.67;9.32;;;;;;;8.78;95.08;100879.81;4986266;28;20120;-64
2021/10/28 08:24:05;;;;;;;16.07;9.93;;;;;;;8.88;95.09;100877.25;4984849;28;20128;-64
2021/10/28 08:29:56;;;;;;;19.63;9.45;;;;;;;9.12;94.40;100877.22;4983138;28;20476;-64
2021/10/28 08:32:41;;;;;;;17.77;9.65;;;;;;;9.26;91.49;100872.50;4984544;28;20050;-64
2021/10/28 08:35:26;;;;;;;17.67;9.45;;;;;;;9.35;92.37;100860.16;4983020;28;20056;-64
2021/10/28 08:38:11;;;;;;;16.45;9.98;;;;;;;9.45;91.88;100857.63;4987472;28;20132;-64
2021/10/28 08:40:56;;;;;;;15.85;9.27;;;;;;;9.56;90.58;100855.78;4991602;28;20077;-63
2021/10/28 08:43:43;;;;;;;16.83;10.02;;;;;;;9.67;91.74;100855.78;4991622;28;20582;-64
2021/10/28 08:46:30;;;;;;;15.15;8.68;;;;;;;9.82;90.23;100847.47;4991616;28;20152;-64
2021/10/28 08:49:22;;;;;;;15.45;9.23;;;;;;;9.98;90.69;100858.66;4983033;28;20432;-63
2021/10/28 08:52:22;;;;;;;15.48;8.48;;;;;;;10.09;91.89;100842.56;4988989;28;20052;-64
2021/10/28 08:55:20;;;;;;;15.43;9.18;;;;;;;10.24;86.63;100844.00;4985427;28;20053;-64
2021/10/28 09:23:52;;;;;;;14.93;8.27;;;;;;;11.10;84.23;100816.06;4983424;28;20045;-64
2021/10/28 09:25:56;;;;;;;15.20;8.65;;;;;;;11.31;84.73;100813.34;4983979;28;20058;-64
2021/10/28 09:28:47;;;;;;;22.52;12.02;;;;;;;11.40;81.32;100809.84;4988348;28;20058;-63
2021/10/28 09:31:36;;;;;;;18.95;11.38;;;;;;;11.40;82.54;100812.53;4987460;28;20044;-64
2021/10/28 09:34:40;;;;;;;22.10;12.50;;;;;;;11.37;81.93;100823.56;4986537;28;20421;-63
2021/10/28 09:43:43;;;;;;;30.05;16.90;;;;;;;11.19;81.09;100824.31;4993678;28;20464;-64
2021/10/28 09:46:43;;;;;;;23.38;13.52;;;;;;;11.10;82.43;100826.78;4988222;28;20100;-62
2021/10/28 09:52:29;;;;;;;25.48;13.68;;;;;;;11.00;81.64;100835.78;4981993;28;20062;-63
2021/10/28 09:58:25;;;;;;;23.50;13.45;;;;;;;10.95;81.96;100830.81;4985708;28;20381;-65
2021/10/28 10:01:35;;;;;;;22.08;13.45;;;;;;;10.98;83.01;100830.56;4982904;28;20411;-64
2021/10/28 10:04:20;;;;;;;27.08;14.88;;;;;;;11.11;82.57;100819.59;4984714;28;20180;-63
2021/10/28 10:07:06;;;;;;;29.70;14.27;;;;;;;11.33;81.59;100832.00;4983116;28;20611;-63
2021/10/28 10:09:51;;;;;;;;;;;;;;;11.24;81.66;100822.06;4986108;28;20422;-63
2021/10/28 10:12:38;;;;;;;22.83;12.82;;;;;;;11.30;81.35;100818.84;4986876;28;19928;-66
2021/10/28 10:15:23;;;;;;;24.52;13.43;;;;;;;11.41;81.22;100819.59;4986357;28;20101;-64
2021/10/28 10:18:14;;;;;;;20.17;12.90;;;;;;;11.51;80.11;100821.47;4985604;28;20057;-64
2021/10/28 10:21:05;;;;;;;19.60;12.70;;;;;;;11.41;80.83;100816.91;4984777;28;20805;-65
2021/10/28 10:24:20;;;;;;;16.77;11.15;;;;;;;11.56;80.65;100817.38;4982677;28;21677;-63
2021/10/28 11:21:27;;;;;;;15.63;10.43;;;;;;;13.48;73.07;100760.84;4964002;28;20253;-78
2021/10/28 12:15:05;;;;;;;9.20;6.07;;;;;;;14.84;62.24;100699.31;4968914;28;20066;-80
2021/10/28 12:21:30;;;;;;;12.38;6.18;;;;;;;14.88;61.61;100678.19;4965101;28;20577;-78
2021/10/28 12:46:12;;;;;;;10.07;7.05;;;;;;;14.83;62.00;100651.69;4969310;28;20121;-80
2021/10/28 13:36:04;;;;;;;16.75;7.60;;;;;;;14.19;63.61;100595.41;4969110;28;20066;-78
2021/10/28 13:48:26;;;;;;;13.65;7.00;;;;;;;14.89;62.33;100579.91;4970358;28;20617;-78
2021/10/28 13:51:26;;;;;;;9.73;5.88;;;;;;;16.43;56.50;100584.53;4961012;28;20133;-79
2021/10/28 13:57:24;;;;;;;9.85;5.03;;;;;;;18.96;49.05;100567.97;4965340;28;20193;-79
2021/10/28 14:00:32;;;;;;;8.70;5.72;;;;;;;19.74;46.02;100565.44;4969160;28;20096;-79
2021/10/28 14:16:16;;;;;;;8.25;3.60;;;;;;;21.18;42.54;100559.19;4960376;28;20118;-78
2021/10/28 14:19:27;;;;;;;9.95;5.10;;;;;;;19.85;43.88;100557.59;4964928;28;20058;-78
2021/10/28 14:22:39;;;;;;;4.63;3.10;;;;;;;20.07;44.39;100544.78;4968251;28;20067;-78
2021/10/28 14:38:10;;;;;;;9.27;5.65;;;;;;;14.47;61.11;100547.50;4965553;28;20102;-78
2021/10/28 15:02:54;;;;;;;11.50;7.10;;;;;;;12.70;68.94;100527.81;4965298;28;20057;-78
2021/10/28 15:30:17;;;;;;;9.20;5.50;;;;;;;11.58;73.16;100502.72;4958036;28;20053;-78
2021/10/28 15:36:12;;;;;;;8.18;4.53;;;;;;;11.23;75.07;100497.94;4963108;28;20117;-78
2021/10/28 15:39:06;;;;;;;7.95;4.95;;;;;;;11.10;75.40;100493.69;4959424;28;20432;-78
2021/10/28 15:42:25;;;;;;;10.55;5.93;;;;;;;10.95;75.96;100495.13;4962745;28;20133;-79
2021/10/28 15:52:13;;;;;;;10.13;5.47;;;;;;;10.45;78.83;100478.25;4962346;28;20062;-77
2021/10/28 16:22:36;;;;;;;32.55;17.05;;;;;;;9.25;85.98;100469.03;4966649;28;20053;-79
2021/10/28 16:25:22;;;;;;;41.58;22.08;;;;;;;9.11;86.28;100468.47;4977063;28;20058;-79
2021/10/28 16:28:08;;;;;;;41.58;22.77;;;;;;;8.95;87.27;100472.44;4974462;28;20085;-78
2021/10/28 16:30:53;;;;;;;41.90;22.08;;;;;;;8.83;87.52;100465.44;4974924;28;20128;-78
2021/10/28 16:36:36;;;;;;;25.45;14.55;;;;;;;8.65;88.13;100464.31;4954801;29;20061;-61
2021/10/28 16:39:23;;;;;;;23.40;12.98;;;;;;;8.46;89.34;100460.44;4953025;29;20049;-61
2021/10/28 16:42:08;;;;;;;21.67;11.43;;;;;;;8.37;89.70;100455.00;4950708;28;20106;-63
2021/10/28 16:44:54;;;;;;;19.63;10.88;;;;;;;8.30;90.18;100462.66;4956115;28;20523;-63
2021/10/28 16:47:39;;;;;;;18.80;10.37;;;;;;;8.25;90.94;100461.31;4973419;22;20050;-64
2021/10/28 16:50:26;;;;;;;20.20;10.90;;;;;;;8.18;91.05;100455.63;4991324;28;20508;-66
2021/10/28 16:53:11;;;;;;;20.27;9.88;;;;;;;8.07;91.21;100452.97;4987119;28;20057;-65
2021/10/28 16:55:56;;;;;;;15.00;8.73;;;;;;;8.01;91.41;100462.31;4988044;28;20061;-64
2021/10/28 16:58:41;;;;;;;17.90;7.85;;;;;;;7.89;91.83;100460.59;4992803;28;20161;-65
2021/10/28 17:01:27;;;;;;;17.27;8.37;;;;;;;7.85;92.49;100459.16;4984130;28;20069;-64
2021/10/28 17:04:12;;;;;;;15.77;8.68;;;;;;;7.76;92.73;100458.06;4993021;28;20527;-65
2021/10/28 17:06:58;;;;;;;12.88;7.35;;;;;;;7.71;92.89;100457.59;4995541;28;20056;-64
2021/10/28 17:09:43;;;;;;;;;;;;;;;7.65;93.38;100460.72;4988361;28;20061;-64
2021/10/28 17:12:28;;;;;;;16.58;8.48;;;;;;;7.56;93.64;100458.75;4991867;28;20049;-64
2021/10/28 17:15:13;;;;;;;13.00;7.53;;;;;;;7.58;94.10;100456.84;4988605;28;20531;-65
2021/10/28 17:17:58;;;;;;;14.40;7.65;;;;;;;7.62;94.25;100459.16;4992478;28;20052;-65
2021/10/28 17:20:44;;;;;;;15.57;9.07;;;;;;;7.66;94.70;100465.09;4991188;28;20105;-65
2021/10/28 17:23:32;;;;;;;18.90;9.73;;;;;;;7.70;94.33;100461.22;4990151;28;20160;-65
2021/10/28 17:26:18;;;;;;;18.30;9.85;;;;;;;7.73;93.53;100457.47;4986415;28;20421;-65
2021/10/28 17:29:04;;;;;;;15.07;8.93;;;;;;;7.76;92.85;100458.06;4989510;28;20061;-65
2021/10/28 17:31:52;;;;;;;13.93;9.25;;;;;;;7.76;92.29;100463.41;4989452;28;20140;-65
2021/10/28 17:34:37;;;;;;;14.63;9.35;;;;;;;7.71;92.16;100468.28;4986906;28;20212;-64
2021/10/28 17:37:23;;;;;;;16.20;8.20;;;;;;;7.70;91.60;100468.41;4987193;28;20124;-65
2021/10/28 17:40:10;;;;;;;14.98;8.25;;;;;;;7.66;91.08;100465.09;4991440;28;20076;-64
2021/10/28 17:42:56;;;;;;;16.75;8.82;;;;;;;7.60;90.50;100465.59;4988083;28;20057;-65
2021/10/28 17:45:41;;;;;;;12.60;7.35;;;;;;;7.59;90.10;100459.41;4989432;28;20403;-65
2021/10/28 17:48:27;;;;;;;13.70;8.48;;;;;;;7.60;89.17;100457.56;4986917;28;20065;-65
2021/10/28 17:51:12;;;;;;;14.40;8.05;;;;;;;7.61;88.88;100465.47;4991047;28;20575;-65
2021/10/28 17:53:57;;;;;;;15.67;8.47;;;;;;;7.57;89.00;100460.47;4988231;28;20136;-64
2021/10/28 17:56:43;;;;;;;16.02;9.25;;;;;;;7.51;89.00;100456.47;4990501;28;20522;-64
2021/10/28 17:59:28;;;;;;;16.45;8.80;;;;;;;7.49;87.79;100460.22;4988029;28;20066;-64
2021/10/28 18:02:13;;;;;;;14.23;7.53;;;;;;;7.51;87.09;100456.47;4991680;28;20104;-65
2021/10/28 18:04:59;;;;;;;15.07;8.05;;;;;;;7.41;87.36;100459.97;4991718;28;20053;-65
2021/10/28 18:07:44;;;;;;;13.95;7.15;;;;;;;7.35;87.29;100453.28;4990371;28;20109;-63
2021/10/28 18:10:29;;;;;;;18.52;9.50;;;;;;;7.30;86.97;100466.13;4989861;28;20065;-67
2021/10/28 18:13:18;;;;;;;19.13;10.47;;;;;;;7.33;85.95;100453.38;4985902;28;20073;-64
2021/10/28 18:16:05;;;;;;;17.05;9.73;;;;;;;7.45;84.52;100453.41;4990439;28;20069;-64
2021/10/28 18:18:51;;;;;;;17.33;9.38;;;;;;;7.46;84.12;100458.66;4990864;28;20088;-65
2021/10/28 18:21:40;;;;;;;16.50;9.33;;;;;;;7.48;83.57;100450.50;4988873;28;20527;-65
2021/10/28 18:24:26;;;;;;;17.65;9.73;;;;;;;7.47;83.60;100443.47;4990067;28;20408;-64
2021/10/28 18:27:11;;;;;;;19.17;9.23;;;;;;;7.52;83.05;100446.63;4987510;28;20173;-64
2021/10/28 18:29:58;;;;;;;19.42;8.80;;;;;;;7.43;83.19;100440.19;4987357;28;20053;-65
2021/10/28 18:32:43;;;;;;;;;;;;;;;7.33;83.02;100440.03;4991208;28;20132;-64
2021/10/28 18:35:28;;;;;;;14.80;8.35;;;;;;;7.25;83.57;100434.44;4988374;28;19929;-64
2021/10/28 18:38:14;;;;;;;15.93;8.77;;;;;;;7.18;83.72;100430.53;4990269;28;20061;-64
2021/10/28 18:41:00;;;;;;;17.70;9.40;;;;;;;7.19;83.35;100426.91;4982415;28;20159;-64
2021/10/28 18:43:47;;;;;;;14.20;8.00;;;;;;;7.17;83.31;100420.84;4996417;28;20716;-64
2021/10/28 18:46:34;;;;;;;16.67;7.63;;;;;;;7.11;83.64;100425.81;4982772;28;20519;-64
2021/10/28 18:49:20;;;;;;;24.85;10.45;;;;;;;7.13;83.47;100415.88;4991343;28;20057;-65
2021/10/28 18:52:06;;;;;;;16.20;8.63;;;;;;;7.10;83.21;100408.91;4978520;28;20081;-65
2021/10/28 18:54:52;;;;;;;17.48;8.25;;;;;;;7.06;83.12;100402.13;4985501;28;20385;-63
2021/10/28 18:57:36;;;;;;;19.27;10.45;;;;;;;7.17;82.81;100410.16;4986116;28;20197;-64
2021/10/28 19:00:22;;;;;;;17.83;10.68;;;;;;;7.13;83.30;100407.84;4984958;28;20073;-63
2021/10/28 19:03:08;;;;;;;21.23;11.17;;;;;;;7.22;82.48;100408.00;4983342;28;20116;-65
2021/10/28 19:05:55;;;;;;;17.70;10.18;;;;;;;7.12;82.93;100415.00;4982401;28;20077;-66
2021/10/28 19:08:40;;;;;;;;;;;;;;;7.00;83.20;100403.47;4984776;28;20053;-63
2021/10/28 19:11:26;;;;;;;15.25;8.60;;;;;;;6.96;83.37;100396.63;4983814;28;20363;-64
2021/10/28 19:14:12;;;;;;;15.55;8.32;;;;;;;6.87;83.76;100399.19;4985442;28;20054;-65
2021/10/28 19:16:57;;;;;;;19.58;8.95;;;;;;;6.72;84.59;100394.03;4985085;28;20061;-64
2021/10/28 19:19:44;;;;;;;17.02;9.77;;;;;;;6.66;85.17;100388.31;4982078;28;20080;-64
2021/10/28 19:22:31;;;;;;;20.48;9.57;;;;;;;6.55;85.58;100386.44;4983749;28;20073;-64
2021/10/28 19:25:16;;;;;;;13.38;7.95;;;;;;;6.49;85.68;100386.91;4982175;28;20066;-65
2021/10/28 19:28:02;;;;;;;15.90;8.05;;;;;;;6.41;86.52;100390.16;4982000;28;20120;-64
2021/10/28 19:30:52;;;;;;;19.73;9.60;;;;;;;6.41;86.70;100386.63;4989147;28;20447;-65
2021/10/28 19:33:42;;;;;;;15.43;8.15;;;;;;;6.30;86.85;100381.25;4991549;28;20420;-64
2021/10/28 19:36:32;;;;;;;16.38;8.73;;;;;;;6.26;87.42;100385.94;4982122;28;20527;-65
2021/10/28 19:39:30;;;;;;;15.10;7.88;;;;;;;6.11;87.92;100374.59;4982696;28;20482;-64
2021/10/28 19:42:33;;;;;;;14.00;7.85;;;;;;;5.99;88.69;100377.31;4984142;28;20602;-64
2021/10/28 19:45:30;;;;;;;17.23;8.82;;;;;;;5.86;89.29;100366.66;4982388;28;20077;-65
2021/10/28 19:48:16;;;;;;;19.20;10.13;;;;;;;5.80;89.57;100361.75;4982916;28;20470;-65
2021/10/28 19:51:02;;;;;;;20.60;10.25;;;;;;;5.75;89.13;100359.44;4983026;28;20057;-64
2021/10/28 19:53:50;;;;;;;15.35;8.68;;;;;;;5.81;88.82;100363.50;4987036;28;20514;-65
2021/10/28 19:56:35;;;;;;;17.15;9.38;;;;;;;5.71;89.43;100357.13;4991821;28;20587;-64
2021/10/28 19:59:19;;;;;;;19.15;10.27;;;;;;;5.70;89.83;100361.59;4984785;28;20487;-66
2021/10/28 20:02:09;;;;;;;19.25;9.88;;;;;;;5.76;89.40;100365.63;4985595;28;20808;-64
2021/10/28 20:05:22;;;;;;;20.45;10.00;;;;;;;5.80;89.16;100357.31;4983306;28;20193;-64
2021/10/28 20:08:25;;;;;;;19.02;9.52;;;;;;;5.73;89.33;100360.53;4981400;28;20069;-64
2021/10/28 20:20:30;;;;;;;21.58;11.55;;;;;;;5.49;90.98;100358.66;4981752;28;20108;-64
2021/10/28 20:23:15;;;;;;;19.25;9.65;;;;;;;5.51;90.62;100351.41;4986130;28;20058;-63
2021/10/28 20:26:00;;;;;;;17.90;9.27;;;;;;;5.50;90.27;100339.06;4987203;28;20105;-64
2021/10/28 20:28:48;;;;;;;16.93;9.07;;;;;;;5.46;90.20;100340.25;4983636;28;20062;-64